createdAt,value
2018-05-26T00:01:09.013Z,12.90
2018-05-26T00:03:39.013Z,13.00
2018-05-26T00:06:14.426Z,13.00
2018-05-26T00:08:42.535Z,13.00
2018-05-26T00:11:27.862Z,13.10
2018-05-26T00:14:03.126Z,13.10
2018-05-26T00:16:33.034Z,13.00
2018-05-26T00:19:05.259Z,12.80
2018-05-26T00:21:51.573Z,12.80
2018-05-26T00:24:30.150Z,12.70
2018-05-26T00:26:59.118Z,12.80
2018-05-26T00:29:27.661Z,12.80
2018-05-26T00:32:09.790Z,12.80
2018-05-26T00:34:43.549Z,12.80
2018-05-26T00:37:12.355Z,12.80
2018-05-26T00:39:40.402Z,12.80
2018-05-26T00:42:11.606Z,12.70
2018-05-26T00:44:53.678Z,12.70
2018-05-26T00:47:22.733Z,12.60
2018-05-26T00:49:50.791Z,12.40
2018-05-26T00:52:23.909Z,12.30
2018-05-26T00:54:59.494Z,12.40
2018-05-26T00:57:30.830Z,12.30
2018-05-26T01:00:00.781Z,12.40
2018-05-26T01:02:38.557Z,12.30
2018-05-26T01:05:08.496Z,12.30
2018-05-26T01:07:41.533Z,12.30
2018-05-26T01:10:09.562Z,12.20
2018-05-26T01:12:40.493Z,12.20
2018-05-26T01:15:10.443Z,12.30
2018-05-26T01:17:39.221Z,12.20
2018-05-26T01:20:08.913Z,12.20
2018-05-26T01:22:40.869Z,12.20
2018-05-26T01:25:10.797Z,12.30
2018-05-26T01:27:41.495Z,12.30
2018-05-26T01:30:11.557Z,12.30
2018-05-26T01:32:40.344Z,12.40
2018-05-26T01:35:12.368Z,12.30
2018-05-26T01:37:40.411Z,12.20
2018-05-26T01:40:08.461Z,12.10
2018-05-26T01:42:41.753Z,12.20
2018-05-26T01:45:11.713Z,12.20
2018-05-26T01:47:40.641Z,12.30
2018-05-26T01:50:12.333Z,12.40
2018-05-26T01:52:40.344Z,12.40
2018-05-26T01:55:09.228Z,12.40
2018-05-26T01:57:40.692Z,12.40
2018-05-26T02:00:09.685Z,12.40
2018-05-26T02:02:39.721Z,12.30
2018-05-26T02:10:56.508Z,12.00
2018-05-26T02:13:24.536Z,12.00
2018-05-26T02:15:54.213Z,11.90
2018-05-26T02:18:24.149Z,11.90
2018-05-26T02:20:53.837Z,11.80
2018-05-26T02:23:39.856Z,11.80
2018-05-26T02:26:24.943Z,11.80
2018-05-26T02:29:05.144Z,11.80
2018-05-26T02:31:34.148Z,11.80
2018-05-26T02:34:10.599Z,11.80
2018-05-26T02:36:41.757Z,11.80
2018-05-26T02:39:29.021Z,11.70
2018-05-26T02:42:03.089Z,11.60
2018-05-26T02:44:31.437Z,11.60
2018-05-26T02:46:59.485Z,11.60
2018-05-26T02:49:27.520Z,11.60
2018-05-26T02:52:08.836Z,11.80
2018-05-26T02:54:37.764Z,11.70
2018-05-26T02:57:05.772Z,12.10
2018-05-26T02:59:39.141Z,12.60
2018-05-26T03:02:15.569Z,12.60
2018-05-26T03:04:49.324Z,12.60
2018-05-26T03:07:27.616Z,12.70
2018-05-26T03:10:05.180Z,12.70
2018-05-26T03:12:44.404Z,12.70
2018-05-26T03:15:31.848Z,12.70
2018-05-26T03:18:09.058Z,12.80
2018-05-26T03:20:39.044Z,12.80
2018-05-26T03:26:01.609Z,12.80
2018-05-26T03:28:30.536Z,12.70
2018-05-26T03:30:58.560Z,12.60
2018-05-26T03:33:27.612Z,12.60
2018-05-26T03:36:07.127Z,12.40
2018-05-26T03:38:35.164Z,12.40
2018-05-26T03:41:03.204Z,12.50
2018-05-26T03:43:35.084Z,12.50
2018-05-26T03:46:03.112Z,12.50
2018-05-26T03:48:33.123Z,12.60
2018-05-26T03:51:01.188Z,12.70
2018-05-26T03:53:32.256Z,12.70
2018-05-26T03:56:17.821Z,12.80
2018-05-26T03:58:57.483Z,12.90
2018-05-26T04:01:28.324Z,13.00
2018-05-26T04:04:02.628Z,13.10
2018-05-26T04:06:33.568Z,13.20
2018-05-26T04:09:09.888Z,13.30
2018-05-26T04:11:40.640Z,13.30
2018-05-26T04:14:10.523Z,13.30
2018-05-26T04:16:40.506Z,13.30
2018-05-26T04:19:12.033Z,13.40
2018-05-26T04:21:40.107Z,13.40
2018-05-26T04:24:15.643Z,13.40
2018-05-26T04:26:51.235Z,13.60
2018-05-26T04:29:23.415Z,13.70
2018-05-26T04:31:53.368Z,13.80
2018-05-26T04:34:23.299Z,13.90
2018-05-26T04:37:10.168Z,14.10
2018-05-26T04:39:40.259Z,14.00
2018-05-26T04:42:10.236Z,14.10
2018-05-26T04:44:55.975Z,14.20
2018-05-26T04:47:28.531Z,14.30
2018-05-26T04:49:56.547Z,14.40
2018-05-26T04:52:38.687Z,14.50
2018-05-26T04:55:07.468Z,14.60
2018-05-26T04:57:40.215Z,14.70
2018-05-26T05:00:19.940Z,14.70
2018-05-26T05:02:47.995Z,14.70
2018-05-26T05:05:24.583Z,14.90
2018-05-26T05:07:55.730Z,14.90
2018-05-26T05:10:25.662Z,15.00
2018-05-26T05:12:54.587Z,15.10
2018-05-26T05:15:24.279Z,15.20
2018-05-26T05:18:10.743Z,15.30
2018-05-26T05:20:39.783Z,15.30
2018-05-26T05:23:10.480Z,15.50
2018-05-26T05:25:39.431Z,15.50
2018-05-26T05:28:09.332Z,15.50
2018-05-26T05:30:38.107Z,15.90
2018-05-26T05:33:06.924Z,16.20
2018-05-26T05:35:34.936Z,16.10
2018-05-26T05:38:10.667Z,16.50
2018-05-26T05:40:38.690Z,16.80
2018-05-26T05:43:20.300Z,17.50
2018-05-26T05:45:49.239Z,17.50
2018-05-26T05:48:25.483Z,17.90
2018-05-26T05:50:58.419Z,18.20
2018-05-26T05:53:33.395Z,18.70
2018-05-26T05:56:02.409Z,18.70
2018-05-26T05:58:30.415Z,18.70
2018-05-26T06:01:00.196Z,18.90
2018-05-26T06:03:30.860Z,18.90
2018-05-26T06:06:18.620Z,19.10
2018-05-26T06:08:54.992Z,19.00
2018-05-26T06:11:24.032Z,19.20
2018-05-26T06:13:57.884Z,19.40
2018-05-26T06:16:31.823Z,19.50
2018-05-26T06:19:09.684Z,19.50
2018-05-26T06:21:39.656Z,19.60
2018-05-26T06:24:07.700Z,19.70
2018-05-26T06:26:35.688Z,19.80
2018-05-26T06:29:08.060Z,19.80
2018-05-26T06:31:39.123Z,19.90
2018-05-26T06:34:29.347Z,20.30
2018-05-26T06:36:59.248Z,20.30
2018-05-26T06:39:27.296Z,20.40
2018-05-26T06:41:56.200Z,20.50
2018-05-26T06:44:30.381Z,20.60
2018-05-26T06:47:15.680Z,20.60
2018-05-26T06:49:44.467Z,21.00
2018-05-26T06:52:20.708Z,21.20
2018-05-26T06:54:50.672Z,21.20
2018-05-26T06:57:32.328Z,21.50
2018-05-26T07:00:01.296Z,21.60
2018-05-26T07:02:29.295Z,21.60
2018-05-26T07:04:58.059Z,21.30
2018-05-26T07:07:27.767Z,21.30
2018-05-26T07:09:55.780Z,21.30
2018-05-26T07:12:23.983Z,21.40
2018-05-26T07:14:58.739Z,21.50
2018-05-26T07:17:38.683Z,21.50
2018-05-26T07:20:29.859Z,21.60
2018-05-26T07:23:04.883Z,21.70
2018-05-26T07:25:38.283Z,21.70
2018-05-26T07:31:01.091Z,22.10
2018-05-26T07:33:29.103Z,22.40
2018-05-26T07:36:01.131Z,22.50
2018-05-26T07:38:31.039Z,22.40
2018-05-26T07:41:18.824Z,22.40
2018-05-26T07:43:48.767Z,22.70
2018-05-26T07:46:18.691Z,22.70
2018-05-26T07:48:46.695Z,22.90
2018-05-26T07:51:28.083Z,23.10
2018-05-26T07:54:07.268Z,23.20
2018-05-26T07:56:35.296Z,23.20
2018-05-26T07:59:03.311Z,22.90
2018-05-26T08:01:34.583Z,23.10
2018-05-26T08:04:04.579Z,23.30
2018-05-26T08:06:32.583Z,23.30
2018-05-26T08:09:01.355Z,23.50
2018-05-26T08:11:29.359Z,23.40
2018-05-26T08:13:58.259Z,23.60
2018-05-26T08:16:26.275Z,23.90
2018-05-26T08:18:56.163Z,24.10
2018-05-26T08:21:38.123Z,24.80
2018-05-26T08:24:30.495Z,25.20
2018-05-26T08:26:58.515Z,25.10
2018-05-26T08:29:28.407Z,25.10
2018-05-26T08:32:04.343Z,25.50
2018-05-26T08:34:39.539Z,25.50
2018-05-26T08:37:10.331Z,25.10
2018-05-26T08:39:39.239Z,25.10
2018-05-26T08:42:08.199Z,25.40
2018-05-26T08:44:40.039Z,25.90
2018-05-26T08:47:21.319Z,26.20
2018-05-26T08:49:53.747Z,26.20
2018-05-26T08:52:22.639Z,26.40
2018-05-26T08:54:58.312Z,27.40
2018-05-26T08:57:30.794Z,27.30
2018-05-26T09:00:10.659Z,27.80
2018-05-26T09:02:39.550Z,28.10
2018-05-26T09:05:11.128Z,27.60
2018-05-26T09:07:43.767Z,26.50
2018-05-26T09:10:18.303Z,26.90
2018-05-26T09:12:50.481Z,27.30
2018-05-26T09:15:33.675Z,27.20
2018-05-26T09:18:05.363Z,26.70
2018-05-26T09:20:33.372Z,27.30
2018-05-26T09:23:07.503Z,28.20
2018-05-26T09:25:36.673Z,28.10
2018-05-26T09:28:10.355Z,28.20
2018-05-26T09:30:39.339Z,28.90
2018-05-26T09:33:09.243Z,28.50
2018-05-26T09:35:38.994Z,28.70
2018-05-26T09:38:06.996Z,28.60
2018-05-26T09:40:36.963Z,28.70
2018-05-26T09:43:05.948Z,28.70
2018-05-26T09:45:34.847Z,29.10
2018-05-26T09:48:03.807Z,29.60
2018-05-26T09:50:36.131Z,29.70
2018-05-26T09:53:04.904Z,29.60
2018-05-26T09:55:37.787Z,29.60
2018-05-26T09:58:05.791Z,29.90
2018-05-26T10:00:33.799Z,30.70
2018-05-26T10:03:01.860Z,30.40
2018-05-26T10:05:30.575Z,29.50
2018-05-26T10:07:58.578Z,29.40
2018-05-26T10:10:30.336Z,32.00
2018-05-26T10:12:59.999Z,31.50
2018-05-26T10:15:33.055Z,31.50
2018-05-26T10:18:01.967Z,31.20
2018-05-26T10:20:33.946Z,31.50
2018-05-26T10:23:05.751Z,32.00
2018-05-26T10:25:33.775Z,31.70
2018-05-26T10:28:08.163Z,31.60
2018-05-26T10:30:37.891Z,32.40
2018-05-26T10:33:05.921Z,32.40
2018-05-26T10:35:33.972Z,32.10
2018-05-26T10:38:02.010Z,30.60
2018-05-26T10:40:31.635Z,31.30
2018-05-26T10:43:11.326Z,31.30
2018-05-26T10:45:39.395Z,32.70
2018-05-26T10:48:07.410Z,33.40
2018-05-26T10:50:35.414Z,33.80
2018-05-26T10:53:03.427Z,33.40
2018-05-26T10:55:38.039Z,33.50
2018-05-26T10:58:12.131Z,33.00
2018-05-26T11:00:40.171Z,32.40
2018-05-26T11:03:09.119Z,32.70
2018-05-26T11:05:37.131Z,33.70
2018-05-26T11:08:06.103Z,33.10
2018-05-26T11:10:34.500Z,31.10
2018-05-26T11:13:02.768Z,32.40
2018-05-26T11:15:34.114Z,32.40
2018-05-26T11:18:02.334Z,32.30
2018-05-26T11:20:35.355Z,31.70
2018-05-26T11:23:03.427Z,30.80
2018-05-26T11:25:33.468Z,30.70
2018-05-26T11:28:01.467Z,32.30
2018-05-26T11:30:29.487Z,32.80
2018-05-26T11:32:57.487Z,33.60
2018-05-26T11:35:30.750Z,33.30
2018-05-26T11:38:00.263Z,33.20
2018-05-26T11:40:30.271Z,31.10
2018-05-26T11:42:59.202Z,30.20
2018-05-26T11:45:30.550Z,29.30
2018-05-26T11:48:00.231Z,29.50
2018-05-26T11:50:30.129Z,29.50
2018-05-26T11:53:00.170Z,29.20
2018-05-26T11:55:35.103Z,27.30
2018-05-26T11:58:03.151Z,27.30
2018-05-26T12:00:32.058Z,27.40
2018-05-26T12:03:00.963Z,29.80
2018-05-26T12:05:41.502Z,30.90
2018-05-26T12:08:10.479Z,30.90
2018-05-26T12:10:39.470Z,30.40
2018-05-26T12:13:10.646Z,29.60
2018-05-26T12:15:38.690Z,29.00
2018-05-26T12:18:07.038Z,30.50
2018-05-26T12:20:48.502Z,31.40
2018-05-26T12:23:16.518Z,31.40
2018-05-26T12:25:46.182Z,35.00
2018-05-26T12:28:26.662Z,34.90
2018-05-26T12:30:57.941Z,35.30
2018-05-26T12:33:25.966Z,35.30
2018-05-26T12:35:56.014Z,34.80
2018-05-26T12:38:25.011Z,34.90
2018-05-26T12:40:53.922Z,36.20
2018-05-26T12:43:27.250Z,37.20
2018-05-26T12:45:56.177Z,38.10
2018-05-26T12:48:25.156Z,38.00
2018-05-26T12:50:57.046Z,36.30
2018-05-26T12:53:31.622Z,36.90
2018-05-26T12:56:00.585Z,38.20
2018-05-26T12:58:33.796Z,38.30
2018-05-26T13:01:07.874Z,37.10
2018-05-26T13:03:36.789Z,37.10
2018-05-26T13:06:06.559Z,35.70
2018-05-26T13:08:48.421Z,35.70
2018-05-26T13:11:17.552Z,35.10
2018-05-26T13:13:46.973Z,37.10
2018-05-26T13:16:16.945Z,37.10
2018-05-26T13:18:44.961Z,38.40
2018-05-26T13:21:14.938Z,38.60
2018-05-26T13:23:44.857Z,37.10
2018-05-26T13:26:13.210Z,36.80
2018-05-26T13:28:42.185Z,37.00
2018-05-26T13:31:12.106Z,35.90
2018-05-26T13:33:40.117Z,36.10
2018-05-26T13:36:22.960Z,35.90
2018-05-26T13:38:55.410Z,36.40
2018-05-26T13:41:25.326Z,36.00
2018-05-26T13:43:53.325Z,37.00
2018-05-26T13:46:21.326Z,37.40
2018-05-26T13:48:49.338Z,37.90
2018-05-26T13:51:20.663Z,37.80
2018-05-26T13:53:48.770Z,38.10
2018-05-26T13:56:27.165Z,37.60
2018-05-26T13:58:55.197Z,36.60
2018-05-26T14:01:23.246Z,36.50
2018-05-26T14:03:57.326Z,37.10
2018-05-26T14:06:32.829Z,37.10
2018-05-26T14:09:13.393Z,38.00
2018-05-26T14:11:42.305Z,38.20
2018-05-26T14:14:21.425Z,36.60
2018-05-26T14:16:49.489Z,35.30
2018-05-26T14:19:19.245Z,33.20
2018-05-26T14:21:48.233Z,33.20
2018-05-26T14:24:27.445Z,33.20
2018-05-26T14:26:56.481Z,33.20
2018-05-26T14:29:27.168Z,34.80
2018-05-26T14:31:56.185Z,34.70
2018-05-26T14:34:31.673Z,35.40
2018-05-26T14:37:05.013Z,36.40
2018-05-26T14:39:47.340Z,37.40
2018-05-26T14:42:18.036Z,35.50
2018-05-26T14:44:50.813Z,35.40
2018-05-26T14:47:20.833Z,34.60
2018-05-26T14:49:48.917Z,34.20
2018-05-26T14:52:16.845Z,33.60
2018-05-26T14:54:49.292Z,33.60
2018-05-26T14:57:17.544Z,33.30
2018-05-26T14:59:49.197Z,33.20
2018-05-26T15:02:17.209Z,32.80
2018-05-26T15:04:46.013Z,32.40
2018-05-26T15:07:14.013Z,32.00
2018-05-26T15:09:48.097Z,31.10
2018-05-26T15:12:18.034Z,30.30
2018-05-26T15:14:58.140Z,29.10
2018-05-26T15:17:30.437Z,28.90
2018-05-26T15:20:06.953Z,28.90
2018-05-26T15:22:46.683Z,28.90
2018-05-26T15:25:14.717Z,29.30
2018-05-26T15:27:59.256Z,29.50
2018-05-26T15:30:28.393Z,29.50
2018-05-26T15:32:56.420Z,29.70
2018-05-26T15:35:26.450Z,29.70
2018-05-26T15:38:13.060Z,29.60
2018-05-26T15:40:42.137Z,29.30
2018-05-26T15:43:12.133Z,29.00
2018-05-26T15:45:45.672Z,29.00
2018-05-26T15:48:29.701Z,29.10
2018-05-26T15:50:59.645Z,29.10
2018-05-26T15:53:29.661Z,30.00
2018-05-26T15:55:58.653Z,31.30
2018-05-26T15:58:32.461Z,32.20
2018-05-26T16:01:09.097Z,32.40
2018-05-26T16:03:47.109Z,32.20
2018-05-26T16:06:17.057Z,31.80
2018-05-26T16:08:56.068Z,30.80
2018-05-26T16:14:21.940Z,30.30
2018-05-26T16:16:57.332Z,30.20
2018-05-26T16:19:25.353Z,30.30
2018-05-26T16:22:11.072Z,30.50
2018-05-26T16:24:40.725Z,30.90
2018-05-26T16:27:14.532Z,30.90
2018-05-26T16:29:47.632Z,31.10
2018-05-26T16:35:24.464Z,31.60
2018-05-26T16:40:46.808Z,32.30
2018-05-26T16:43:15.580Z,32.30
2018-05-26T16:45:44.537Z,32.20
2018-05-26T16:48:16.720Z,32.70
2018-05-26T16:50:46.725Z,33.10
2018-05-26T16:53:14.729Z,33.30
2018-05-26T16:55:47.185Z,33.00
2018-05-26T16:58:15.189Z,32.80
2018-05-26T17:00:47.621Z,32.80
2018-05-26T17:03:20.597Z,32.80
2018-05-26T17:05:55.313Z,32.90
2018-05-26T17:08:31.257Z,32.80
2018-05-26T17:14:03.954Z,32.10
2018-05-26T17:16:46.765Z,31.20
2018-05-26T17:25:02.496Z,30.40
2018-05-26T17:27:35.012Z,30.00
2018-05-26T17:30:09.684Z,29.50
2018-05-26T17:32:38.756Z,29.10
2018-05-26T17:35:12.424Z,28.90
2018-05-26T17:37:44.113Z,28.90
2018-05-26T17:40:31.304Z,29.00
2018-05-26T17:43:13.989Z,29.00
2018-05-26T17:45:45.748Z,29.10
2018-05-26T17:48:31.872Z,29.00
2018-05-26T17:51:03.248Z,28.80
2018-05-26T17:53:31.352Z,28.00
2018-05-26T17:59:03.128Z,26.70
2018-05-26T18:01:35.432Z,26.30
2018-05-26T18:04:15.353Z,26.20
2018-05-26T18:06:44.288Z,26.40
2018-05-26T18:18:11.460Z,26.30
2018-05-26T18:20:50.609Z,25.90
2018-05-26T18:23:33.685Z,25.50
2018-05-26T18:28:56.196Z,24.80
2018-05-26T18:31:26.204Z,24.50
2018-05-26T18:34:00.308Z,24.10
2018-05-26T18:39:21.617Z,23.60
2018-05-26T18:42:09.645Z,23.30
2018-05-26T18:44:38.637Z,23.10
2018-05-26T18:47:08.593Z,22.80
2018-05-26T18:49:45.045Z,22.60
2018-05-26T18:52:34.699Z,22.40
2018-05-26T18:55:08.453Z,22.20
2018-05-26T18:57:40.104Z,22.00
2018-05-26T19:00:10.044Z,21.70
2018-05-26T19:02:57.283Z,21.30
2018-05-26T19:05:25.304Z,21.20
2018-05-26T19:13:46.348Z,20.70
2018-05-26T19:16:33.415Z,20.70
2018-05-26T19:19:06.760Z,20.60
2018-05-26T19:21:38.735Z,20.40
2018-05-26T19:24:26.656Z,20.30
2018-05-26T19:26:55.672Z,20.10
2018-05-26T19:29:44.476Z,19.90
2018-05-26T19:32:12.500Z,19.80
2018-05-26T19:34:41.507Z,19.70
2018-05-26T19:43:08.035Z,19.40
2018-05-26T19:45:57.164Z,19.30
2018-05-26T19:54:20.004Z,19.10
2018-05-26T19:56:48.056Z,19.00
2018-05-26T19:59:23.696Z,18.90
2018-05-26T20:01:59.792Z,18.70
2018-05-26T20:04:33.655Z,18.60
2018-05-26T20:10:19.968Z,18.40
2018-05-26T20:12:53.484Z,18.30
2018-05-26T20:15:36.227Z,18.30
2018-05-26T20:18:13.064Z,18.10
2018-05-26T20:20:42.836Z,17.90
2018-05-26T20:23:16.008Z,17.90
2018-05-26T20:25:51.856Z,17.80
2018-05-26T20:28:38.592Z,17.70
2018-05-26T20:31:19.038Z,17.60
2018-05-26T20:33:56.807Z,17.50
2018-05-26T20:36:31.611Z,17.40
2018-05-26T20:39:06.296Z,17.10
2018-05-26T20:41:38.945Z,17.00
2018-05-26T20:44:17.668Z,16.90
2018-05-26T20:46:58.844Z,16.80
2018-05-26T20:49:30.380Z,16.70
2018-05-26T20:51:59.711Z,16.70
2018-05-26T20:54:29.708Z,16.80
2018-05-26T20:57:03.864Z,16.80
2018-05-26T21:02:29.368Z,16.70
2018-05-26T21:05:03.788Z,16.70
2018-05-26T21:07:36.483Z,16.70
2018-05-26T21:10:07.213Z,16.80
2018-05-26T21:12:37.108Z,16.70
2018-05-26T21:15:05.147Z,16.70
2018-05-26T21:17:35.120Z,16.70
2018-05-26T21:20:04.896Z,16.60
2018-05-26T21:22:43.072Z,16.60
2018-05-26T21:25:15.099Z,16.60
2018-05-26T21:27:57.304Z,16.60
2018-05-26T21:30:34.340Z,16.50
2018-05-26T21:33:04.255Z,16.50
2018-05-26T21:35:32.283Z,16.40
2018-05-26T21:38:03.588Z,16.40
2018-05-26T21:40:33.599Z,16.30
2018-05-26T21:43:03.623Z,16.30
2018-05-26T21:45:32.612Z,16.30
2018-05-26T21:48:04.912Z,16.30
2018-05-26T21:50:35.615Z,16.30
2018-05-26T21:53:04.611Z,16.30
2018-05-26T21:55:32.645Z,16.30
2018-05-26T21:58:15.349Z,16.30
2018-05-26T22:00:44.319Z,16.20
2018-05-26T22:03:13.319Z,16.00
2018-05-26T22:05:43.728Z,16.00
2018-05-26T22:08:11.695Z,15.90
2018-05-26T22:10:42.388Z,15.70
2018-05-26T22:13:12.459Z,15.70
2018-05-26T22:15:42.351Z,15.70
2018-05-26T22:18:12.363Z,15.60
2018-05-26T22:20:41.347Z,15.60
2018-05-26T22:23:12.603Z,15.60
2018-05-26T22:25:42.753Z,15.60
2018-05-26T22:28:16.275Z,15.60
2018-05-26T22:30:45.311Z,15.60
2018-05-26T22:33:24.818Z,15.60
2018-05-26T22:35:55.883Z,15.60
2018-05-26T22:38:29.879Z,15.60
2018-05-26T22:41:02.772Z,15.60
2018-05-26T22:43:54.651Z,15.60
2018-05-26T22:46:23.592Z,15.50
2018-05-26T22:48:51.838Z,15.40
2018-05-26T22:51:19.882Z,15.30
2018-05-26T22:53:47.923Z,15.30
2018-05-26T22:56:20.263Z,15.30
2018-05-26T22:58:50.220Z,15.40
2018-05-26T23:01:24.056Z,15.30
2018-05-26T23:03:53.967Z,15.30
2018-05-26T23:06:27.139Z,15.40
2018-05-26T23:08:58.902Z,15.30
2018-05-26T23:11:26.959Z,15.30
2018-05-26T23:13:57.710Z,15.10
2018-05-26T23:16:28.551Z,15.10
2018-05-26T23:18:57.511Z,15.10
2018-05-26T23:21:25.547Z,15.00
2018-05-26T23:23:53.615Z,15.00
2018-05-26T23:26:21.646Z,14.90
2018-05-26T23:28:51.627Z,14.80
2018-05-26T23:31:24.139Z,14.70
2018-05-26T23:33:53.926Z,14.70
2018-05-26T23:36:25.695Z,14.70
2018-05-26T23:38:56.371Z,14.70
2018-05-26T23:41:25.412Z,14.70
2018-05-26T23:43:53.475Z,14.70
2018-05-26T23:46:21.523Z,14.60
2018-05-26T23:48:53.306Z,14.50
2018-05-26T23:51:22.299Z,14.50
2018-05-26T23:53:51.299Z,14.50
2018-05-26T23:56:23.734Z,14.40
2018-05-26T23:58:59.433Z,14.40
